Terminal Aerodrome Forecast
Issued by NWS

Home | Current Version | Previous Version | Text Only | Print | Product List | Glossary On
Versions: 1 2 3 4 5 6 7 8 9 10 11 12 13 14 15 16 17 18 19 20 21 22 23 24 25 26 27 28 29 30 31 32 33 34
000
FTAK31 PANC 202340
TAFACD
TAF
PACD 202340Z 2100/2124 35008KT 6SM BR VCSH SCT001 BKN025 OVC050
      TEMPO 2100/2104 2SM BR
     FM210900 34010G16KT P6SM -SHSN SCT015 BKN025=

USA.gov is the U.S. government's official web portal to all federal, state and local government web resources and services.